Sinop — 9HA3115 — position and weather

sailwx.info

Track history (hours):
 
Tides and Currents Weather Stations Pressure Air Temp Water Temp Dewpoint Dewpoint Depression Visibility Wind Speed Wind Dir Waves Ship Positions

Sinop

Last reported at 2018-Feb-16 13:10 UTC. Time now 2018-Feb-20 01:48 UTC.
Position N 46°21' E 030°55'.

Length 200 m; draft 7 m.

Type: Cargo ship. MMSI: 229159000.

Date/timePositionNaut miles runAvg speedWind from/ knotsBaromVisibWave heightAir tempDewpointWater temp
2018-Feb-16 13:10N 46°21' E 030°55'312.6
2018-Feb-16 12:53N 46°25' E 030°55'  
2018-Feb-13 08:46N 46°33' E 030°58'2 6.9
2018-Feb-13 08:29N 46°31' E 030°57'347 7.7
2018-Feb-11 11:36N 40°54' E 028°60'2 9.3
2018-Feb-11 11:25N 40°53' E 029°00'6 5.0
2018-Feb-11 10:14N 40°47' E 029°02'0 1.4
2018-Feb-11 09:54N 40°47' E 029°02'1 1.4
2018-Feb-11 09:17N 40°48' E 029°03'0 1.3
2018-Feb-11 08:57N 40°48' E 029°03'1 1.5
2018-Feb-11 08:24N 40°47' E 029°03'1 0.9
2018-Feb-11 06:48N 40°49' E 029°03'0 0.7
2018-Feb-11 06:28N 40°49' E 029°03'0 0.7
2018-Feb-11 06:00N 40°49' E 029°03'0 0.6
2018-Feb-11 05:29N 40°49' E 029°03'0 0.2
2018-Feb-11 04:59N 40°49' E 029°03'0 0.8
2018-Feb-11 04:29N 40°49' E 029°03'1 1.1
2018-Feb-11 04:00N 40°48' E 029°03'1 1.0
2018-Feb-11 03:25N 40°48' E 029°03'0 0.2
2018-Feb-11 02:26N 40°48' E 029°03'0 0.4
2018-Feb-11 01:42N 40°47' E 029°03'0 0.4
2018-Feb-11 01:21N 40°47' E 029°03'0 0.5
2018-Feb-11 01:00N 40°47' E 029°03'1 1.1
2018-Feb-11 00:22N 40°47' E 029°04'1 1.6
2018-Feb-10 23:55N 40°47' E 029°05'1 2.8
2018-Feb-10 23:26N 40°47' E 029°07'3 6.3
2018-Feb-10 22:59N 40°48' E 029°10'2 3.5
2018-Feb-10 22:30N 40°50' E 029°10'2 3.9
2018-Feb-10 22:00N 40°48' E 029°11'1 2.2
2018-Feb-10 21:30N 40°48' E 029°13'2 3.8
2018-Feb-10 21:00N 40°47' E 029°11'1 1.5
2018-Feb-10 20:30N 40°46' E 029°11'2 3.7
2018-Feb-10 19:59N 40°46' E 029°09'2 3.9
2018-Feb-10 19:29N 40°46' E 029°06'1 1.8
2018-Feb-10 19:00N 40°46' E 029°07'1 1.4
2018-Feb-10 18:30N 40°45' E 029°08'1 1.4
2018-Feb-10 18:00N 40°45' E 029°09'1 1.4
2018-Feb-10 17:30N 40°45' E 029°10'1 1.3
2018-Feb-10 17:00N 40°46' E 029°10'1 1.4
2018-Feb-10 16:30N 40°46' E 029°11'1 1.4
2018-Feb-10 16:00N 40°46' E 029°12'2 4.5
2018-Feb-10 15:30N 40°45' E 029°15'4 7.1
2018-Feb-10 15:00N 40°45' E 029°20'  
Track history (hours):
 
Tides and Currents Weather Stations Pressure Air Temp Water Temp Dewpoint Dewpoint Depression Visibility Wind Speed Wind Dir Waves Ship Positions

Sinop

Last reported at 2018-Feb-16 13:10 UTC. Time now 2018-Feb-20 01:48 UTC.
Position N 46°21' E 030°55'.

Length 200 m; draft 7 m.

Type: Cargo ship. MMSI: 229159000.

Date/timePositionNaut miles runAvg speedWind from/ knotsBaromVisibWave heightAir tempDewpointWater temp
2018-Feb-16 13:10N 46°21' E 030°55'312.6
2018-Feb-16 12:53N 46°25' E 030°55'  
2018-Feb-13 08:46N 46°33' E 030°58'2 6.9
2018-Feb-13 08:29N 46°31' E 030°57'347 7.7
2018-Feb-11 11:36N 40°54' E 028°60'2 9.3
2018-Feb-11 11:25N 40°53' E 029°00'6 5.0
2018-Feb-11 10:14N 40°47' E 029°02'0 1.4
2018-Feb-11 09:54N 40°47' E 029°02'1 1.4
2018-Feb-11 09:17N 40°48' E 029°03'0 1.3
2018-Feb-11 08:57N 40°48' E 029°03'1 1.5
2018-Feb-11 08:24N 40°47' E 029°03'1 0.9
2018-Feb-11 06:48N 40°49' E 029°03'0 0.7
2018-Feb-11 06:28N 40°49' E 029°03'0 0.7
2018-Feb-11 06:00N 40°49' E 029°03'0 0.6
2018-Feb-11 05:29N 40°49' E 029°03'0 0.2
2018-Feb-11 04:59N 40°49' E 029°03'0 0.8
2018-Feb-11 04:29N 40°49' E 029°03'1 1.1
2018-Feb-11 04:00N 40°48' E 029°03'1 1.0
2018-Feb-11 03:25N 40°48' E 029°03'0 0.2
2018-Feb-11 02:26N 40°48' E 029°03'0 0.4
2018-Feb-11 01:42N 40°47' E 029°03'0 0.4
2018-Feb-11 01:21N 40°47' E 029°03'0 0.5
2018-Feb-11 01:00N 40°47' E 029°03'1 1.1
2018-Feb-11 00:22N 40°47' E 029°04'1 1.6
2018-Feb-10 23:55N 40°47' E 029°05'1 2.8
2018-Feb-10 23:26N 40°47' E 029°07'3 6.3
2018-Feb-10 22:59N 40°48' E 029°10'2 3.5
2018-Feb-10 22:30N 40°50' E 029°10'2 3.9
2018-Feb-10 22:00N 40°48' E 029°11'1 2.2
2018-Feb-10 21:30N 40°48' E 029°13'2 3.8
2018-Feb-10 21:00N 40°47' E 029°11'1 1.5
2018-Feb-10 20:30N 40°46' E 029°11'2 3.7
2018-Feb-10 19:59N 40°46' E 029°09'2 3.9
2018-Feb-10 19:29N 40°46' E 029°06'1 1.8
2018-Feb-10 19:00N 40°46' E 029°07'1 1.4
2018-Feb-10 18:30N 40°45' E 029°08'1 1.4
2018-Feb-10 18:00N 40°45' E 029°09'1 1.4
2018-Feb-10 17:30N 40°45' E 029°10'1 1.3
2018-Feb-10 17:00N 40°46' E 029°10'1 1.4
2018-Feb-10 16:30N 40°46' E 029°11'1 1.4
2018-Feb-10 16:00N 40°46' E 029°12'2 4.5
2018-Feb-10 15:30N 40°45' E 029°15'4 7.1
2018-Feb-10 15:00N 40°45' E 029°20'  

Dump ship's entire track history